Time;durP1;ratioP1;P1;durP2;ratioP2;P2;SDS_P1;SDS_P2;PMS_P1;PMS_P2;Temp;Humidity;BMP_temperature;BMP_pressure;BME280_temperature;BME280_humidity;BME280_pressure;Samples;Min_cycle;Max_cycle;Signal;HPM_P1;HPM_P2
2021/06/11 00:00:10;;;;;;;;;3.25;3.00;;;;;22.86;47.64;101598.44;5121184;27;45428;-48
2021/06/11 00:02:36;;;;;;;;;1.50;1.50;;;;;22.85;48.13;101602.06;5119353;27;46153;-47
2021/06/11 00:05:01;;;;;;;;;3.50;2.50;;;;;22.83;47.94;101603.09;5102587;27;45306;-46
2021/06/11 00:07:27;;;;;;;;;3.75;2.25;;;;;22.80;47.98;101597.91;5102226;27;45907;-47
2021/06/11 00:09:52;;;;;;;;;4.00;2.50;;;;;22.75;48.55;101598.13;5121095;27;46052;-48
2021/06/11 00:12:17;;;;;;;;;2.00;2.00;;;;;22.77;48.12;101606.97;5102108;27;45259;-51
2021/06/11 00:14:43;;;;;;;;;2.00;2.00;;;;;22.72;48.62;101606.34;5094885;27;45374;-47
2021/06/11 00:17:10;;;;;;;;;3.00;2.00;;;;;22.66;48.69;101604.84;5098648;27;45370;-49
2021/06/11 00:19:36;;;;;;;;;3.00;3.00;;;;;22.61;48.91;101606.03;5101274;27;46290;-50
2021/06/11 00:22:03;;;;;;;;;2.00;2.00;;;;;22.56;48.46;101607.16;5085216;27;45741;-47
2021/06/11 00:24:28;;;;;;;;;2.00;2.00;;;;;22.53;49.12;101601.94;5102605;27;45235;-50
2021/06/11 00:26:53;;;;;;;;;3.25;2.25;;;;;22.49;48.93;101600.38;5087170;27;45181;-47
2021/06/11 00:29:19;;;;;;;;;2.50;2.00;;;;;22.47;48.55;101604.06;5124452;27;46043;-47
2021/06/11 00:31:45;;;;;;;;;2.25;2.25;;;;;22.45;48.82;101603.28;5123874;27;45330;-48
2021/06/11 00:34:10;;;;;;;;;2.25;2.25;;;;;22.42;49.04;101603.44;5105974;27;45421;-49
2021/06/11 00:36:35;;;;;;;;;2.25;2.00;;;;;22.36;48.45;101605.44;5124133;27;45612;-51
2021/06/11 00:39:02;;;;;;;;;2.00;2.00;;;;;22.33;48.81;101608.25;5105931;27;46003;-47
2021/06/11 00:41:27;;;;;;;;;2.50;2.50;;;;;22.27;49.03;101597.88;5124027;27;45243;-47
2021/06/11 00:43:52;;;;;;;;;2.00;2.00;;;;;22.26;48.90;101606.81;5124068;27;45396;-47
2021/06/11 00:46:18;;;;;;;;;2.50;1.75;;;;;22.25;48.51;101602.44;5124006;27;45314;-46
2021/06/11 00:48:43;;;;;;;;;3.00;2.00;;;;;22.22;49.07;101608.78;5105379;27;48350;-48
2021/06/11 00:51:08;;;;;;;;;1.25;1.25;;;;;22.21;49.35;101606.19;5123797;27;45290;-49
2021/06/11 00:53:34;;;;;;;;;2.75;2.75;;;;;22.19;48.96;101606.28;5124265;27;45316;-48
2021/06/11 00:56:00;;;;;;;;;1.75;1.75;;;;;22.10;49.38;101600.50;5105292;27;45377;-51
2021/06/11 00:58:25;;;;;;;;;2.75;2.50;;;;;22.01;49.53;101586.66;5123674;27;46119;-48
2021/06/11 01:00:51;;;;;;;;;2.25;2.25;;;;;22.11;48.97;101604.91;5123653;27;45296;-50
2021/06/11 01:03:18;;;;;;;;;4.00;4.00;;;;;22.07;49.01;101605.09;5091633;27;45319;-50
2021/06/11 01:05:43;;;;;;;;;1.75;1.75;;;;;22.06;49.28;101605.13;5123874;27;45309;-50
2021/06/11 01:08:14;;;;;;;;;2.50;2.25;;;;;21.99;49.41;101595.69;5105008;27;46892;-47
2021/06/11 01:10:41;;;;;;;;;1.50;1.50;;;;;21.97;49.25;101608.28;5105523;27;45309;-52
2021/06/11 01:13:08;;;;;;;;;3.00;3.00;;;;;21.91;49.82;101602.28;5105054;27;45560;-46
2021/06/11 01:15:34;;;;;;;;;2.50;2.00;;;;;21.83;49.71;101596.44;5108448;27;45237;-47
2021/06/11 01:17:59;;;;;;;;;2.00;2.00;;;;;21.81;49.84;101595.66;5080895;27;45355;-49
2021/06/11 01:20:25;;;;;;;;;1.00;1.00;;;;;21.78;49.56;101592.25;5082444;27;45228;-47
2021/06/11 01:23:17;;;;;;;;;4.00;2.00;;;;;21.76;49.19;101597.69;5089008;27;45433;-45
2021/06/11 01:25:59;;;;;;;;;1.50;1.50;;;;;21.69;49.84;101598.91;5082984;27;45858;-49
2021/06/11 01:28:27;;;;;;;;;3.00;1.75;;;;;21.65;49.43;101598.19;5084037;27;46848;-52
2021/06/11 01:30:55;;;;;;;;;3.25;3.25;;;;;21.66;49.70;101601.72;5079808;28;45419;-52
2021/06/11 01:33:23;;;;;;;;;2.00;2.00;;;;;21.61;49.49;101601.06;5082120;27;45251;-51
2021/06/11 01:35:54;;;;;;;;;2.50;2.50;;;;;21.59;49.65;101603.81;5089150;27;45378;-49
2021/06/11 01:38:23;;;;;;;;;1.75;1.75;;;;;21.57;50.14;101603.91;5086623;27;46124;-50
2021/06/11 01:40:51;;;;;;;;;2.00;2.00;;;;;21.55;49.92;101605.75;5082069;27;45313;-47
2021/06/11 01:43:19;;;;;;;;;1.25;1.25;;;;;21.51;49.35;101600.59;5082019;27;45413;-49
2021/06/11 01:45:44;;;;;;;;;2.00;1.00;;;;;21.46;49.52;101595.47;5082002;27;45255;-51
2021/06/11 01:48:12;;;;;;;;;3.00;1.00;;;;;21.36;49.69;101572.78;5081624;27;46022;-49
2021/06/11 01:50:38;;;;;;;;;1.00;1.00;;;;;21.49;50.09;101598.00;5082114;27;45351;-48
2021/06/11 01:53:05;;;;;;;;;2.50;2.50;;;;;21.47;50.18;101596.34;5081954;27;45494;-49
2021/06/11 01:55:33;;;;;;;;;2.00;2.00;;;;;21.45;49.71;101596.41;5097752;27;45410;-51
2021/06/11 01:58:01;;;;;;;;;2.00;2.00;;;;;21.43;49.88;101599.16;5081550;27;46066;-49
2021/06/11 02:00:27;;;;;;;;;1.00;1.00;;;;;21.42;50.19;101589.41;5081834;27;45305;-49
2021/06/11 02:02:53;;;;;;;;;2.75;1.50;;;;;21.40;50.43;101593.09;5098686;27;45226;-47
2021/06/11 02:05:19;;;;;;;;;2.25;2.25;;;;;21.39;50.36;101592.19;5102339;27;45290;-51
2021/06/11 02:07:47;;;;;;;;;2.00;2.00;;;;;21.36;50.53;101589.69;5101873;27;46159;-46
2021/06/11 02:10:14;;;;;;;;;3.75;1.50;;;;;21.36;50.69;101592.34;5100760;27;45414;-49
2021/06/11 02:12:39;;;;;;;;;1.00;1.00;;;;;21.33;50.14;101595.16;5101958;27;45298;-49
2021/06/11 02:15:07;;;;;;;;;2.00;1.00;;;;;21.33;50.63;101589.81;5091364;27;45248;-48
2021/06/11 02:17:40;;;;;;;;;1.75;1.75;;;;;21.31;50.82;101586.34;5082565;27;46359;-48
2021/06/11 02:20:09;;;;;;;;;2.00;2.00;;;;;21.26;50.65;101580.34;5101943;27;45312;-48
2021/06/11 02:22:37;;;;;;;;;1.75;1.75;;;;;21.28;50.75;101578.47;5101683;27;45445;-47
2021/06/11 02:25:04;;;;;;;;;1.25;1.25;;;;;21.23;50.52;101577.81;5102039;27;45276;-46
2021/06/11 02:27:30;;;;;;;;;1.75;1.75;;;;;21.25;50.50;101579.47;5104910;27;45655;-50
2021/06/11 02:29:56;;;;;;;;;2.25;2.00;;;;;21.23;50.95;101577.81;5101788;27;45429;-51
2021/06/11 02:32:22;;;;;;;;;2.25;2.00;;;;;21.16;51.12;101569.22;5101400;27;45177;-51
2021/06/11 02:34:47;;;;;;;;;2.75;2.00;;;;;21.22;50.98;101584.97;5101821;27;45536;-51
2021/06/11 02:37:13;;;;;;;;;2.25;1.00;;;;;21.22;51.07;101581.41;5101484;27;46303;-47
2021/06/11 02:39:38;;;;;;;;;3.00;1.00;;;;;21.22;51.19;101579.63;5101974;27;45548;-49
2021/06/11 02:42:07;;;;;;;;;3.25;3.00;;;;;21.22;51.25;101576.06;5083146;27;45314;-52
2021/06/11 02:44:35;;;;;;;;;4.00;3.25;;;;;21.19;51.25;101569.06;5101572;27;45581;-51
2021/06/11 02:47:11;;;;;;;;;2.50;2.00;;;;;21.20;50.78;101567.28;5108304;27;46478;-49
2021/06/11 02:49:44;;;;;;;;;1.25;1.25;;;;;21.19;51.41;101563.72;5122029;27;45305;-51
2021/06/11 02:52:11;;;;;;;;;2.75;1.25;;;;;21.19;51.36;101570.88;5103796;27;45365;-50
2021/06/11 02:54:44;;;;;;;;;1.00;1.00;;;;;21.19;51.40;101568.22;5121976;27;45504;-47
2021/06/11 02:57:37;;;;;;;;;2.75;1.75;;;;;21.17;51.54;101570.97;5121724;27;45643;-50
2021/06/11 03:00:09;;;;;;;;;1.00;1.00;;;;;21.16;51.52;101571.03;5120633;27;45361;-49
2021/06/11 03:02:58;;;;;;;;;1.00;1.00;;;;;21.16;51.41;101579.06;5121611;27;45377;-50
2021/06/11 03:05:24;;;;;;;;;1.25;1.25;;;;;21.15;51.69;101571.97;5121906;27;45254;-49
2021/06/11 03:07:53;;;;;;;;;2.00;2.00;;;;;21.16;51.29;101563.88;5121534;27;45181;-51
2021/06/11 03:10:26;;;;;;;;;1.50;1.50;;;;;21.16;51.64;101571.03;5121826;27;46146;-50
2021/06/11 03:12:52;;;;;;;;;3.50;3.00;;;;;21.18;51.25;101563.78;5121495;27;45407;-48
2021/06/11 03:15:18;;;;;;;;;2.00;1.00;;;;;21.17;51.25;101568.28;5109179;27;45234;-49
2021/06/11 03:17:49;;;;;;;;;4.00;3.00;;;;;21.18;51.34;101559.34;5100371;27;46315;-48
2021/06/11 03:20:19;;;;;;;;;1.50;1.50;;;;;21.20;51.69;101564.59;5099807;27;45419;-51
2021/06/11 03:23:10;;;;;;;;;1.00;1.00;;;;;21.19;51.62;101557.53;5100918;27;45362;-49
2021/06/11 03:25:44;;;;;;;;;1.25;1.25;;;;;21.19;51.23;101561.03;5089187;27;45181;-51
2021/06/11 03:28:15;;;;;;;;;3.00;2.00;;;;;21.18;51.78;101556.66;5104916;27;46857;-50
2021/06/11 03:30:48;;;;;;;;;3.25;2.00;;;;;21.19;51.42;101560.19;5100463;27;45496;-51
2021/06/11 03:33:19;;;;;;;;;2.00;1.00;;;;;21.19;51.75;101563.72;5100871;27;45351;-47
2021/06/11 03:35:49;;;;;;;;;2.00;2.00;;;;;21.20;51.35;101565.47;5100766;27;45587;-47
2021/06/11 03:38:21;;;;;;;;;1.50;1.50;;;;;21.21;51.80;101574.34;5100810;27;45435;-50
2021/06/11 03:40:48;;;;;;;;;2.00;2.00;;;;;21.21;51.78;101564.53;5100781;27;45234;-47
2021/06/11 03:43:15;;;;;;;;;51.00;42.75;;;;;21.21;51.23;101569.88;5099263;27;45480;-50
2021/06/11 03:45:42;;;;;;;;;11.00;8.75;;;;;21.20;51.88;101565.47;5100605;27;45337;-47
2021/06/11 03:48:14;;;;;;;;;3.00;3.00;;;;;21.18;51.67;101566.47;5100364;27;45579;-48
2021/06/11 03:50:43;;;;;;;;;4.00;3.00;;;;;21.20;51.77;101564.59;5100477;27;45468;-49
2021/06/11 03:53:10;;;;;;;;;2.00;1.75;;;;;21.22;51.95;101565.38;5100649;27;45268;-48
2021/06/11 03:55:48;;;;;;;;;3.00;2.00;;;;;21.20;51.32;101567.28;5103472;27;45243;-48
2021/06/11 03:58:18;;;;;;;;;2.00;2.00;;;;;21.21;51.46;101574.34;5085536;27;48198;-48
2021/06/11 04:00:46;;;;;;;;;1.00;1.00;;;;;21.20;51.33;101569.94;5104061;27;45326;-48
2021/06/11 04:03:12;;;;;;;;;1.00;1.00;;;;;21.18;51.64;101569.13;5124196;27;45237;-48
2021/06/11 04:05:38;;;;;;;;;3.50;2.00;;;;;21.19;51.93;101578.91;5124684;27;45488;-50
2021/06/11 04:08:07;;;;;;;;;2.25;2.25;;;;;21.22;51.51;101573.41;5124468;27;45478;-50
2021/06/11 04:10:35;;;;;;;;;2.00;2.00;;;;;21.24;51.36;101574.22;5124748;27;45325;-50
2021/06/11 04:13:12;;;;;;;;;2.00;2.00;;;;;21.25;52.03;101571.44;5124393;27;45229;-48
2021/06/11 04:15:41;;;;;;;;;3.00;2.00;;;;;21.26;51.94;101572.34;5108824;27;45353;-48
2021/06/11 04:18:11;;;;;;;;;4.50;1.75;;;;;21.27;52.01;101580.28;5103685;27;46391;-48
2021/06/11 04:20:39;;;;;;;;;1.25;1.25;;;;;21.27;51.38;101576.75;5103786;27;45319;-49
2021/06/11 04:23:06;;;;;;;;;2.25;2.25;;;;;21.30;51.93;101573.06;5103991;27;45391;-48
2021/06/11 04:25:34;;;;;;;;;2.00;2.00;;;;;21.31;51.93;101573.00;5103636;27;45311;-50
2021/06/11 04:28:01;;;;;;;;;2.00;1.75;;;;;21.31;51.38;101577.44;5107822;27;46204;-48
2021/06/11 04:30:27;;;;;;;;;2.75;1.00;;;;;21.29;51.62;101566.84;5103464;27;45215;-47
2021/06/11 04:32:53;;;;;;;;;3.00;3.00;;;;;21.32;51.34;101580.09;5103721;27;45333;-47
2021/06/11 04:35:24;;;;;;;;;1.50;1.50;;;;;21.28;51.89;101583.81;5103911;27;45761;-46
2021/06/11 04:37:49;;;;;;;;;1.50;1.50;;;;;21.25;52.06;101579.47;5103516;27;46886;-52
2021/06/11 04:40:15;;;;;;;;;2.75;2.75;;;;;21.28;51.93;101567.78;5103468;27;45313;-49
2021/06/11 04:42:40;;;;;;;;;2.50;2.00;;;;;21.29;51.77;101579.34;5103634;27;45274;-47
2021/06/11 04:45:06;;;;;;;;;3.00;2.75;;;;;21.30;51.47;101571.25;5103615;27;45406;-50
2021/06/11 04:47:32;;;;;;;;;5.00;3.00;;;;;21.31;51.38;101578.34;5102955;27;45355;-46
2021/06/11 04:49:57;;;;;;;;;4.75;4.50;;;;;21.30;52.02;101583.75;5084918;27;45256;-47
2021/06/11 04:52:22;;;;;;;;;2.00;2.00;;;;;21.27;51.46;101585.63;5103643;27;45347;-50
2021/06/11 04:54:48;;;;;;;;;4.25;3.50;;;;;21.26;51.59;101583.03;5103330;27;45223;-48
2021/06/11 04:57:13;;;;;;;;;2.00;2.00;;;;;21.25;51.60;101582.16;5084749;27;47083;-48
2021/06/11 04:59:39;;;;;;;;;2.50;2.25;;;;;21.30;51.98;101579.28;5103241;27;45298;-47
2021/06/11 05:02:05;;;;;;;;;3.25;2.50;;;;;21.33;51.83;101587.13;5113595;27;45272;-49
2021/06/11 05:04:30;;;;;;;;;4.00;4.00;;;;;21.34;51.96;101588.88;5123749;27;45527;-48
2021/06/11 05:06:56;;;;;;;;;5.25;3.50;;;;;21.33;51.89;101579.13;5122361;27;46264;-49
2021/06/11 05:09:21;;;;;;;;;2.00;2.00;;;;;21.37;51.90;101586.06;5123591;27;45337;-50
2021/06/11 05:11:48;;;;;;;;;4.25;2.75;;;;;21.38;51.93;101587.81;5123717;27;45347;-51
2021/06/11 05:14:13;;;;;;;;;3.00;3.00;;;;;21.36;51.28;101591.50;5120111;27;46350;-46
2021/06/11 05:16:38;;;;;;;;;3.00;3.00;;;;;21.30;51.98;101592.63;5102729;27;45208;-48
2021/06/11 05:19:04;;;;;;;;;3.75;3.75;;;;;21.29;51.84;101601.59;5102766;27;45154;-48
2021/06/11 05:21:30;;;;;;;;;4.25;3.25;;;;;21.29;51.63;101595.38;5102927;27;45491;-48
2021/06/11 05:23:55;;;;;;;;;3.50;3.50;;;;;21.30;52.10;101602.47;5102693;27;45403;-51
2021/06/11 05:26:21;;;;;;;;;3.25;2.00;;;;;21.30;51.70;101600.66;5084451;27;48144;-51
2021/06/11 05:28:46;;;;;;;;;3.50;2.25;;;;;21.36;52.30;101600.38;5106143;27;45164;-50
2021/06/11 05:31:11;;;;;;;;;3.50;3.50;;;;;21.39;52.27;101613.59;5084275;27;45231;-51
2021/06/11 05:33:36;;;;;;;;;3.00;3.00;;;;;21.38;51.46;101605.66;5102474;27;45255;-49
2021/06/11 05:36:02;;;;;;;;;2.75;2.75;;;;;21.39;51.60;101610.91;5102758;27;45246;-49
2021/06/11 05:38:28;;;;;;;;;2.00;2.00;;;;;21.41;51.27;101616.22;5102584;27;45223;-50
2021/06/11 05:40:54;;;;;;;;;3.50;3.50;;;;;21.41;51.56;101609.03;5102832;27;45168;-49
2021/06/11 05:43:19;;;;;;;;;2.75;2.75;;;;;21.47;51.50;101620.38;5102553;27;45484;-46
2021/06/11 05:45:45;;;;;;;;;4.50;3.50;;;;;21.47;51.49;101620.38;5102055;27;45876;-48
2021/06/11 05:48:11;;;;;;;;;4.25;4.25;;;;;21.48;51.43;101614.13;5084023;27;45430;-47
2021/06/11 05:50:36;;;;;;;;;3.75;3.75;;;;;21.52;51.74;101615.69;5102706;27;45325;-45
2021/06/11 05:53:02;;;;;;;;;4.00;2.00;;;;;21.52;51.67;101624.59;5102276;27;45334;-48
2021/06/11 05:55:28;;;;;;;;;2.50;2.50;;;;;21.53;51.76;101614.75;5102283;27;46121;-49
2021/06/11 05:57:54;;;;;;;;;3.00;2.00;;;;;21.56;51.65;101614.66;5102332;27;45315;-47
2021/06/11 06:00:20;;;;;;;;;3.50;1.50;;;;;21.60;51.07;101621.59;5102340;27;45305;-48
2021/06/11 06:02:45;;;;;;;;;3.75;3.75;;;;;21.60;51.22;101616.25;5118517;27;45212;-50
2021/06/11 06:05:11;;;;;;;;;2.00;2.00;;;;;21.65;51.19;101624.94;5122668;27;45286;-48
2021/06/11 06:07:38;;;;;;;;;2.00;2.00;;;;;21.64;50.79;101623.19;5122662;27;45177;-47
2021/06/11 06:10:05;;;;;;;;;1.00;1.00;;;;;21.68;50.74;101619.41;5122818;27;45542;-49
2021/06/11 06:12:30;;;;;;;;;2.75;2.75;;;;;21.70;50.76;101622.03;5103880;27;45291;-51
2021/06/11 06:14:57;;;;;;;;;2.75;2.75;;;;;21.71;50.54;101618.41;5112987;27;45436;-46
2021/06/11 06:17:22;;;;;;;;;5.00;3.00;;;;;21.76;50.56;101621.75;5101264;27;45379;-49
2021/06/11 06:19:48;;;;;;;;;3.75;2.25;;;;;21.75;50.49;101631.56;5101916;27;45375;-48
2021/06/11 06:22:13;;;;;;;;;3.50;3.00;;;;;21.77;50.86;101625.28;5101744;27;45374;-47
2021/06/11 06:24:39;;;;;;;;;3.00;3.00;;;;;21.82;50.42;101628.59;5083487;27;45462;-46
2021/06/11 06:27:04;;;;;;;;;2.25;2.25;;;;;21.85;50.59;101621.31;5105481;27;45410;-49
2021/06/11 06:29:30;;;;;;;;;4.00;4.00;;;;;21.88;50.53;101629.16;5102035;27;45537;-48
2021/06/11 06:31:55;;;;;;;;;4.00;4.00;;;;;21.92;51.09;101621.88;5101237;27;45545;-47
2021/06/11 06:34:21;;;;;;;;;2.50;2.50;;;;;21.97;50.58;101633.22;5101769;27;46017;-48
2021/06/11 06:36:46;;;;;;;;;3.00;3.00;;;;;22.00;50.28;101632.19;5101563;27;45169;-46
2021/06/11 06:39:11;;;;;;;;;3.00;3.00;;;;;22.05;50.58;101636.41;5101899;27;45178;-48
2021/06/11 06:41:37;;;;;;;;;3.00;3.00;;;;;22.08;50.78;101633.56;5101541;27;45191;-46
2021/06/11 06:44:03;;;;;;;;;5.00;3.00;;;;;22.12;50.69;101633.44;5101345;27;46349;-46
2021/06/11 06:46:29;;;;;;;;;4.00;4.00;;;;;22.18;50.34;101638.47;5101302;27;45460;-50
2021/06/11 06:48:54;;;;;;;;;2.00;2.00;;;;;22.19;50.24;101634.88;5101713;27;45253;-49
2021/06/11 06:51:23;;;;;;;;;3.75;2.00;;;;;22.21;49.96;101635.63;5101334;27;45279;-49
2021/06/11 06:53:48;;;;;;;;;2.75;2.75;;;;;22.28;49.58;101636.22;5083196;27;47335;-47
2021/06/11 06:56:14;;;;;;;;;3.25;3.25;;;;;22.32;50.14;101635.13;5101273;27;45422;-48
2021/06/11 06:58:39;;;;;;;;;2.00;2.00;;;;;22.35;49.81;101633.16;5101455;27;45246;-49
2021/06/11 07:01:05;;;;;;;;;2.75;2.00;;;;;22.37;49.86;101633.97;5103037;27;45541;-47
2021/06/11 07:03:31;;;;;;;;;3.00;3.00;;;;;22.46;50.10;101631.78;5113053;27;46244;-48
2021/06/11 07:05:59;;;;;;;;;4.00;3.25;;;;;22.49;49.32;101637.84;5101326;27;45492;-47
2021/06/11 07:08:26;;;;;;;;;3.50;3.50;;;;;22.54;49.79;101634.94;5101292;27;45346;-49
2021/06/11 07:10:53;;;;;;;;;2.00;2.00;;;;;22.58;49.56;101633.84;5100864;27;45417;-49
2021/06/11 07:13:18;;;;;;;;;7.75;6.00;;;;;22.62;49.56;101640.78;5104319;27;45643;-46
2021/06/11 07:15:43;;;;;;;;;4.50;4.50;;;;;22.63;49.56;101631.81;5105069;27;45369;-49
2021/06/11 07:18:09;;;;;;;;;4.00;4.00;;;;;22.67;49.29;101629.84;5101171;27;45163;-46
2021/06/11 07:20:35;;;;;;;;;5.25;3.25;;;;;22.70;49.59;101629.66;5082696;27;45375;-51
2021/06/11 07:23:00;;;;;;;;;3.50;3.25;;;;;22.78;49.58;101640.88;5100987;27;45254;-47
2021/06/11 07:25:25;;;;;;;;;4.00;3.00;;;;;22.81;49.80;101651.41;5100976;27;45161;-51
2021/06/11 07:27:51;;;;;;;;;4.75;4.75;;;;;22.85;49.37;101641.41;5105257;27;45453;-48
2021/06/11 07:30:16;;;;;;;;;5.00;4.75;;;;;22.92;49.64;101640.16;5099597;27;45216;-46
2021/06/11 07:32:42;;;;;;;;;4.00;4.00;;;;;22.95;49.21;101639.13;5100588;27;46114;-47
2021/06/11 07:35:09;;;;;;;;;4.50;4.25;;;;;22.97;49.23;101638.09;5100698;27;45228;-46
2021/06/11 07:37:35;;;;;;;;;4.00;4.00;;;;;22.98;48.97;101631.78;5101066;27;45378;-48
2021/06/11 07:40:00;;;;;;;;;2.75;2.50;;;;;23.08;49.04;101645.56;5100471;27;45535;-47
2021/06/11 07:42:26;;;;;;;;;3.00;3.00;;;;;23.13;48.79;101640.84;5100421;27;45330;-49
2021/06/11 07:44:51;;;;;;;;;3.25;2.25;;;;;23.20;48.69;101638.72;5100622;27;45460;-47
2021/06/11 07:47:16;;;;;;;;;3.75;3.75;;;;;23.23;48.35;101646.56;5100787;27;45362;-46
2021/06/11 07:49:43;;;;;;;;;3.75;2.75;;;;;23.25;48.37;101644.69;5100632;27;45299;-48
2021/06/11 07:52:09;;;;;;;;;2.25;2.25;;;;;23.28;47.91;101649.03;5100509;27;45279;-48
2021/06/11 07:54:34;;;;;;;;;2.00;2.00;;;;;23.32;48.00;101638.06;5100515;27;45391;-48
2021/06/11 07:57:00;;;;;;;;;4.00;2.75;;;;;23.35;48.02;101647.75;5082371;27;45237;-47
2021/06/11 07:59:25;;;;;;;;;1.50;1.50;;;;;23.41;47.74;101650.09;5100485;27;45219;-49
2021/06/11 08:01:50;;;;;;;;;3.00;2.00;;;;;23.46;47.83;101656.09;5108649;27;46069;-51
2021/06/11 08:04:16;;;;;;;;;3.25;3.00;;;;;23.53;47.75;101654.81;5120974;27;45300;-52
2021/06/11 08:06:43;;;;;;;;;4.00;2.50;;;;;23.61;47.85;101648.13;5102745;27;45372;-48
2021/06/11 08:09:08;;;;;;;;;3.00;3.00;;;;;23.67;47.87;101656.72;5119435;27;45310;-51
2021/06/11 08:11:33;;;;;;;;;2.25;2.00;;;;;23.70;47.29;101647.66;5102446;27;47188;-47
2021/06/11 08:13:59;;;;;;;;;2.75;2.75;;;;;23.78;47.33;101653.44;5119441;27;45273;-51
2021/06/11 08:16:24;;;;;;;;;2.25;2.25;;;;;23.82;46.90;101657.69;5100394;27;45435;-51
2021/06/11 08:18:51;;;;;;;;;3.75;3.00;;;;;23.89;46.86;101657.34;5100171;27;45387;-47
2021/06/11 08:21:18;;;;;;;;;2.75;2.00;;;;;23.92;46.80;101665.25;5100278;27;46369;-51
2021/06/11 08:23:44;;;;;;;;;2.25;2.25;;;;;23.92;46.96;101652.69;5100085;27;45571;-51
2021/06/11 08:26:10;;;;;;;;;2.00;2.00;;;;;24.00;46.85;101661.19;5082160;27;45382;-50
2021/06/11 08:28:35;;;;;;;;;3.00;3.00;;;;;24.02;46.52;101661.09;5103415;27;45166;-47
2021/06/11 08:31:00;;;;;;;;;5.75;2.75;;;;;24.05;46.93;101663.63;5099986;27;46276;-50
2021/06/11 08:33:26;;;;;;;;;4.00;3.00;;;;;24.11;47.12;101654.34;5100046;27;45236;-51
2021/06/11 08:35:51;;;;;;;;;6.00;3.50;;;;;24.16;47.23;101654.94;5100429;27;45792;-50
2021/06/11 08:38:16;;;;;;;;;3.25;2.50;;;;;24.25;47.02;101667.84;5100008;27;45689;-47
2021/06/11 08:40:42;;;;;;;;;3.75;3.75;;;;;24.33;46.24;101665.56;5083705;27;45243;-48
2021/06/11 08:43:07;;;;;;;;;4.00;2.00;;;;;24.37;46.07;101665.41;5103375;27;45298;-52
2021/06/11 08:45:33;;;;;;;;;6.00;3.50;;;;;24.42;46.45;101666.88;5103413;27;45203;-50
2021/06/11 08:47:59;;;;;;;;;3.00;2.00;;;;;24.49;46.36;101662.03;5103460;27;45465;-46
2021/06/11 08:50:29;;;;;;;;;3.00;1.00;;;;;24.57;46.46;101662.41;5103259;27;46030;-48
2021/06/11 08:52:56;;;;;;;;;4.25;2.50;;;;;24.61;45.48;101663.97;5103365;27;45248;-49
2021/06/11 08:55:22;;;;;;;;;2.75;2.75;;;;;24.64;45.59;101655.75;5103486;27;45296;-50
2021/06/11 08:57:48;;;;;;;;;3.25;3.00;;;;;24.70;45.08;101661.72;5102906;27;45518;-49
2021/06/11 09:00:14;;;;;;;;;5.00;4.00;;;;;24.70;44.90;101661.72;5103107;27;47069;-51
2021/06/11 09:03:13;;;;;;;;;2.75;2.75;;;;;24.67;44.75;101666.31;5118436;27;45383;-45
2021/06/11 09:05:44;;;;;;;;;2.50;2.50;;;;;24.65;44.88;101656.63;5105516;27;45209;-49
2021/06/11 09:08:14;;;;;;;;;3.00;3.00;;;;;24.70;45.33;101662.56;5123711;27;45379;-50
2021/06/11 09:10:39;;;;;;;;;4.00;3.00;;;;;24.78;44.80;101664.81;5123467;27;45700;-45
2021/06/11 09:13:05;;;;;;;;;3.25;3.25;;;;;24.85;44.93;101668.88;5123539;27;45455;-48
2021/06/11 09:15:30;;;;;;;;;5.00;5.00;;;;;24.94;44.79;101656.69;5109107;27;45233;-48
2021/06/11 09:17:56;;;;;;;;;4.75;3.50;;;;;25.01;44.11;101659.88;5103127;27;45235;-48
2021/06/11 09:20:27;;;;;;;;;3.75;3.00;;;;;25.11;44.16;101658.38;5102869;27;45671;-47
2021/06/11 09:22:55;;;;;;;;;4.00;3.25;;;;;25.18;43.97;101654.31;5102714;27;45289;-48
2021/06/11 09:25:29;;;;;;;;;4.50;4.50;;;;;25.26;44.14;101652.03;5102893;27;45332;-51
2021/06/11 09:28:22;;;;;;;;;8.25;5.50;;;;;25.39;43.79;101649.47;5106341;27;45418;-49
2021/06/11 09:30:51;;;;;;;;;5.50;4.25;;;;;25.50;43.82;101651.50;5083927;27;47769;-51
2021/06/11 09:33:19;;;;;;;;;2.25;2.25;;;;;25.58;43.93;101646.47;5101273;27;45276;-49
2021/06/11 09:35:47;;;;;;;;;3.75;3.75;;;;;25.66;43.30;101642.44;5102931;27;45398;-47
2021/06/11 09:38:13;;;;;;;;;4.00;4.00;;;;;25.74;43.11;101646.38;5102564;27;45378;-50
2021/06/11 09:40:41;;;;;;;;;4.25;3.25;;;;;25.81;42.94;101644.16;5102498;27;47118;-49
2021/06/11 09:43:07;;;;;;;;;3.00;3.00;;;;;25.80;42.24;101640.59;5102410;27;45440;-46
2021/06/11 09:45:33;;;;;;;;;5.25;4.25;;;;;25.81;42.86;101628.00;5102416;27;45446;-49
2021/06/11 09:47:59;;;;;;;;;4.00;4.00;;;;;25.95;42.09;101638.72;5102415;27;45584;-47
2021/06/11 09:50:27;;;;;;;;;7.00;6.25;;;;;26.08;42.69;101635.25;5102405;27;45252;-46
2021/06/11 09:53:06;;;;;;;;;5.50;5.50;;;;;26.27;42.73;101632.22;5101657;27;45458;-49
2021/06/11 09:55:35;;;;;;;;;6.25;6.25;;;;;26.39;42.08;101631.38;5102504;27;45165;-48
2021/06/11 09:58:07;;;;;;;;;5.00;5.00;;;;;26.54;41.19;101629.50;5102156;27;45453;-49
2021/06/11 10:00:35;;;;;;;;;6.25;4.50;;;;;26.69;40.70;101634.78;5102014;27;46267;-48
2021/06/11 10:03:01;;;;;;;;;4.50;4.50;;;;;26.65;40.61;101635.97;5120468;27;46483;-48
2021/06/11 10:05:30;;;;;;;;;6.25;5.75;;;;;26.56;40.22;101624.84;5122870;27;45263;-48
2021/06/11 10:07:57;;;;;;;;;6.00;5.50;;;;;26.60;39.88;101633.59;5122716;27;45156;-48
2021/06/11 10:10:22;;;;;;;;;5.25;5.25;;;;;26.52;40.10;101630.56;5122735;27;45719;-50
2021/06/11 10:12:48;;;;;;;;;4.00;4.00;;;;;26.50;40.39;101627.94;5122485;27;45215;-50
2021/06/11 10:15:17;;;;;;;;;5.25;4.00;;;;;26.53;39.38;101630.44;5092667;27;45437;-50
2021/06/11 10:17:43;;;;;;;;;6.25;5.00;;;;;26.56;39.48;101626.69;5100444;27;45460;-50
2021/06/11 10:20:13;;;;;;;;;4.75;4.50;;;;;26.65;39.44;101630.59;5101810;27;46148;-51
2021/06/11 10:22:39;;;;;;;;;6.00;5.00;;;;;26.76;39.89;101630.75;5101750;27;45313;-51
2021/06/11 10:25:08;;;;;;;;;5.25;5.00;;;;;26.90;39.68;101619.84;5102010;27;45315;-49
2021/06/11 10:27:35;;;;;;;;;6.00;5.00;;;;;27.03;38.69;101627.09;5104696;27;45293;-51
2021/06/11 10:30:01;;;;;;;;;6.50;5.25;;;;;27.08;39.64;101609.63;5101684;27;45283;-52
2021/06/11 10:32:27;;;;;;;;;4.00;4.00;;;;;27.36;38.99;101620.28;5101365;27;45345;-51
2021/06/11 10:34:54;;;;;;;;;7.25;5.50;;;;;27.80;39.48;101629.72;5101790;27;45326;-50
2021/06/11 10:37:40;;;;;;;;;5.00;5.00;;;;;29.57;38.18;101624.38;5101674;27;45325;-51
2021/06/11 10:40:40;;;;;;;;;4.00;3.00;;;;;33.97;33.79;101618.38;5101376;27;47031;-50
2021/06/11 10:43:29;;;;;;;;;4.75;4.00;;;;;38.85;29.52;101615.50;5101563;27;45461;-51
2021/06/11 10:45:57;;;;;;;;;4.25;4.25;;;;;42.36;24.19;101621.63;5101437;27;45398;-48
2021/06/11 10:48:23;;;;;;;;;3.00;3.00;;;;;44.74;21.97;101628.38;5101229;27;45291;-49
2021/06/11 10:50:49;;;;;;;;;4.50;4.50;;;;;46.58;19.04;101635.63;5101215;27;46038;-50
2021/06/11 10:53:32;;;;;;;;;2.50;2.50;;;;;48.27;16.70;101626.22;5082956;27;45302;-53
2021/06/11 10:56:13;;;;;;;;;4.00;4.00;;;;;50.94;15.39;101629.28;5101573;27;45366;-48
2021/06/11 10:58:40;;;;;;;;;5.50;3.00;;;;;54.03;13.67;101626.94;5101065;27;45334;-51
2021/06/11 11:01:24;;;;;;;;;2.25;2.25;;;;;56.85;10.98;101625.78;5102864;27;46262;-50
2021/06/11 11:03:49;;;;;;;;;5.50;4.50;;;;;58.53;8.97;101625.78;5091653;27;45457;-49
2021/06/11 11:06:26;;;;;;;;;4.00;3.00;;;;;60.37;8.80;101619.97;5119663;27;45350;-50
2021/06/11 11:08:53;;;;;;;;;3.00;3.00;;;;;61.75;7.35;101629.72;5103509;27;45346;-47
2021/06/11 11:11:31;;;;;;;;;2.50;2.50;;;;;62.63;7.21;101622.09;5121697;27;45334;-48
2021/06/11 11:13:57;;;;;;;;;3.75;3.75;;;;;63.45;6.57;101620.06;5101889;27;45283;-51
2021/06/11 11:16:25;;;;;;;;;3.25;3.00;;;;;63.63;5.70;101606.31;5100937;27;45173;-51
2021/06/11 11:18:53;;;;;;;;;4.00;3.25;;;;;61.49;5.88;101595.09;5100813;27;45441;-49
2021/06/11 11:21:34;;;;;;;;;2.75;2.75;;;;;56.91;6.33;101573.72;5100967;27;46130;-53
2021/06/11 11:24:05;;;;;;;;;3.25;3.25;;;;;52.42;8.82;101567.25;5100865;27;45385;-50
2021/06/11 11:26:47;;;;;;;;;3.75;3.00;;;;;49.11;10.84;101557.41;5102411;27;45254;-52